sensor_id;sensor_type;location;lat;lon;timestamp;P1;durP1;ratioP1;P2;durP2;ratioP2
41446;SDS011;27185;52.040;4.490;2023-01-09T00:00:46;4.30;;;0.70;;
41446;SDS011;27185;52.040;4.490;2023-01-09T00:03:32;7.25;;;0.80;;
41446;SDS011;27185;52.040;4.490;2023-01-09T00:06:18;6.20;;;0.63;;
41446;SDS011;27185;52.040;4.490;2023-01-09T00:09:04;5.00;;;0.80;;
41446;SDS011;27185;52.040;4.490;2023-01-09T00:11:50;6.35;;;0.65;;
41446;SDS011;27185;52.040;4.490;2023-01-09T00:14:36;4.78;;;0.73;;
41446;SDS011;27185;52.040;4.490;2023-01-09T00:17:21;5.10;;;1.08;;
41446;SDS011;27185;52.040;4.490;2023-01-09T00:20:07;11.75;;;0.90;;
41446;SDS011;27185;52.040;4.490;2023-01-09T00:22:54;3.53;;;0.60;;
41446;SDS011;27185;52.040;4.490;2023-01-09T00:25:39;6.05;;;0.93;;
41446;SDS011;27185;52.040;4.490;2023-01-09T00:28:25;4.28;;;0.73;;
41446;SDS011;27185;52.040;4.490;2023-01-09T00:31:11;5.28;;;0.95;;
41446;SDS011;27185;52.040;4.490;2023-01-09T00:34:02;4.35;;;0.60;;
41446;SDS011;27185;52.040;4.490;2023-01-09T00:36:50;4.10;;;0.70;;
41446;SDS011;27185;52.040;4.490;2023-01-09T00:39:40;8.88;;;0.70;;
41446;SDS011;27185;52.040;4.490;2023-01-09T00:42:29;2.30;;;0.80;;
41446;SDS011;27185;52.040;4.490;2023-01-09T00:45:17;5.05;;;0.85;;
41446;SDS011;27185;52.040;4.490;2023-01-09T00:48:09;5.45;;;0.90;;
41446;SDS011;27185;52.040;4.490;2023-01-09T00:50:58;4.35;;;0.70;;
41446;SDS011;27185;52.040;4.490;2023-01-09T00:53:44;3.90;;;0.70;;
41446;SDS011;27185;52.040;4.490;2023-01-09T00:56:32;3.60;;;0.75;;
41446;SDS011;27185;52.040;4.490;2023-01-09T00:59:20;6.30;;;0.90;;
41446;SDS011;27185;52.040;4.490;2023-01-09T01:02:06;3.40;;;0.75;;
41446;SDS011;27185;52.040;4.490;2023-01-09T01:04:52;4.65;;;0.93;;
41446;SDS011;27185;52.040;4.490;2023-01-09T01:07:56;4.30;;;0.75;;
41446;SDS011;27185;52.040;4.490;2023-01-09T01:10:42;3.83;;;0.82;;
41446;SDS011;27185;52.040;4.490;2023-01-09T01:13:29;5.50;;;1.08;;
41446;SDS011;27185;52.040;4.490;2023-01-09T01:16:15;6.05;;;1.45;;
41446;SDS011;27185;52.040;4.490;2023-01-09T01:19:02;8.27;;;1.95;;
41446;SDS011;27185;52.040;4.490;2023-01-09T01:21:47;6.88;;;0.80;;
41446;SDS011;27185;52.040;4.490;2023-01-09T01:24:33;5.75;;;1.00;;
41446;SDS011;27185;52.040;4.490;2023-01-09T01:27:19;4.82;;;1.23;;
41446;SDS011;27185;52.040;4.490;2023-01-09T01:30:05;8.48;;;1.20;;
41446;SDS011;27185;52.040;4.490;2023-01-09T01:32:52;5.43;;;1.20;;
41446;SDS011;27185;52.040;4.490;2023-01-09T01:35:37;4.13;;;1.08;;
41446;SDS011;27185;52.040;4.490;2023-01-09T01:38:23;5.85;;;1.10;;
41446;SDS011;27185;52.040;4.490;2023-01-09T01:41:08;9.13;;;1.08;;
41446;SDS011;27185;52.040;4.490;2023-01-09T01:44:01;4.07;;;0.98;;
41446;SDS011;27185;52.040;4.490;2023-01-09T01:47:10;4.43;;;1.60;;
41446;SDS011;27185;52.040;4.490;2023-01-09T01:49:57;9.60;;;2.20;;
41446;SDS011;27185;52.040;4.490;2023-01-09T01:52:47;6.35;;;1.38;;
41446;SDS011;27185;52.040;4.490;2023-01-09T01:55:44;6.82;;;1.40;;
41446;SDS011;27185;52.040;4.490;2023-01-09T01:58:40;4.82;;;1.25;;
41446;SDS011;27185;52.040;4.490;2023-01-09T02:01:33;8.55;;;1.50;;
41446;SDS011;27185;52.040;4.490;2023-01-09T02:04:24;11.25;;;1.63;;
41446;SDS011;27185;52.040;4.490;2023-01-09T02:07:11;6.72;;;1.40;;
41446;SDS011;27185;52.040;4.490;2023-01-09T02:09:57;7.75;;;1.55;;
41446;SDS011;27185;52.040;4.490;2023-01-09T02:12:44;9.17;;;1.60;;
41446;SDS011;27185;52.040;4.490;2023-01-09T02:15:32;7.68;;;1.70;;
41446;SDS011;27185;52.040;4.490;2023-01-09T02:21:29;5.82;;;1.20;;
41446;SDS011;27185;52.040;4.490;2023-01-09T02:31:26;10.43;;;1.60;;
41446;SDS011;27185;52.040;4.490;2023-01-09T02:34:25;6.45;;;1.88;;
41446;SDS011;27185;52.040;4.490;2023-01-09T02:37:30;7.72;;;1.92;;
41446;SDS011;27185;52.040;4.490;2023-01-09T02:43:11;6.43;;;2.15;;
41446;SDS011;27185;52.040;4.490;2023-01-09T02:45:58;6.22;;;1.50;;
41446;SDS011;27185;52.040;4.490;2023-01-09T02:48:44;6.40;;;1.70;;
41446;SDS011;27185;52.040;4.490;2023-01-09T02:51:45;7.95;;;2.05;;
41446;SDS011;27185;52.040;4.490;2023-01-09T02:54:45;6.28;;;1.90;;
41446;SDS011;27185;52.040;4.490;2023-01-09T03:01:02;5.00;;;2.10;;
41446;SDS011;27185;52.040;4.490;2023-01-09T03:04:05;11.23;;;2.03;;
41446;SDS011;27185;52.040;4.490;2023-01-09T03:06:54;8.35;;;1.95;;
41446;SDS011;27185;52.040;4.490;2023-01-09T03:09:42;8.50;;;2.03;;
41446;SDS011;27185;52.040;4.490;2023-01-09T03:12:34;12.18;;;2.22;;
41446;SDS011;27185;52.040;4.490;2023-01-09T03:15:21;14.98;;;2.83;;
41446;SDS011;27185;52.040;4.490;2023-01-09T03:18:10;5.95;;;1.92;;
41446;SDS011;27185;52.040;4.490;2023-01-09T03:20:58;9.98;;;2.47;;
41446;SDS011;27185;52.040;4.490;2023-01-09T03:23:51;9.65;;;2.17;;
41446;SDS011;27185;52.040;4.490;2023-01-09T03:26:41;6.22;;;1.83;;
41446;SDS011;27185;52.040;4.490;2023-01-09T03:29:27;8.57;;;1.90;;
41446;SDS011;27185;52.040;4.490;2023-01-09T03:32:12;6.65;;;1.60;;
41446;SDS011;27185;52.040;4.490;2023-01-09T03:34:58;4.88;;;1.63;;
41446;SDS011;27185;52.040;4.490;2023-01-09T03:37:45;12.43;;;1.95;;
41446;SDS011;27185;52.040;4.490;2023-01-09T03:40:31;11.60;;;1.92;;
41446;SDS011;27185;52.040;4.490;2023-01-09T03:43:16;12.48;;;2.17;;
41446;SDS011;27185;52.040;4.490;2023-01-09T03:46:02;10.43;;;2.10;;
41446;SDS011;27185;52.040;4.490;2023-01-09T03:48:48;5.00;;;1.27;;
41446;SDS011;27185;52.040;4.490;2023-01-09T03:51:34;7.88;;;1.60;;
41446;SDS011;27185;52.040;4.490;2023-01-09T03:54:19;9.15;;;1.60;;
41446;SDS011;27185;52.040;4.490;2023-01-09T03:57:05;6.60;;;1.40;;
41446;SDS011;27185;52.040;4.490;2023-01-09T03:59:50;7.07;;;2.10;;
41446;SDS011;27185;52.040;4.490;2023-01-09T04:02:36;6.13;;;1.17;;
41446;SDS011;27185;52.040;4.490;2023-01-09T04:05:21;7.78;;;1.67;;
41446;SDS011;27185;52.040;4.490;2023-01-09T04:08:07;7.35;;;1.30;;
41446;SDS011;27185;52.040;4.490;2023-01-09T04:10:53;6.50;;;1.83;;
41446;SDS011;27185;52.040;4.490;2023-01-09T04:13:38;4.03;;;1.40;;
41446;SDS011;27185;52.040;4.490;2023-01-09T04:16:24;7.45;;;1.48;;
41446;SDS011;27185;52.040;4.490;2023-01-09T04:19:09;9.05;;;2.25;;
41446;SDS011;27185;52.040;4.490;2023-01-09T04:21:55;9.85;;;1.65;;
41446;SDS011;27185;52.040;4.490;2023-01-09T04:24:40;6.10;;;1.42;;
41446;SDS011;27185;52.040;4.490;2023-01-09T04:27:26;6.65;;;1.55;;
41446;SDS011;27185;52.040;4.490;2023-01-09T04:30:12;5.22;;;1.15;;
41446;SDS011;27185;52.040;4.490;2023-01-09T04:32:57;13.05;;;1.98;;
41446;SDS011;27185;52.040;4.490;2023-01-09T04:35:43;9.27;;;1.00;;
41446;SDS011;27185;52.040;4.490;2023-01-09T04:38:30;7.43;;;1.45;;
41446;SDS011;27185;52.040;4.490;2023-01-09T04:41:15;7.20;;;1.40;;
41446;SDS011;27185;52.040;4.490;2023-01-09T04:44:21;6.80;;;1.63;;
41446;SDS011;27185;52.040;4.490;2023-01-09T04:47:11;11.73;;;1.33;;
41446;SDS011;27185;52.040;4.490;2023-01-09T04:49:57;5.35;;;1.00;;
41446;SDS011;27185;52.040;4.490;2023-01-09T04:52:44;4.57;;;1.05;;
41446;SDS011;27185;52.040;4.490;2023-01-09T04:55:29;5.93;;;1.75;;
41446;SDS011;27185;52.040;4.490;2023-01-09T04:58:15;9.48;;;1.48;;
41446;SDS011;27185;52.040;4.490;2023-01-09T05:01:00;8.85;;;1.85;;
41446;SDS011;27185;52.040;4.490;2023-01-09T05:03:46;7.05;;;1.40;;
41446;SDS011;27185;52.040;4.490;2023-01-09T05:06:32;5.85;;;1.25;;
41446;SDS011;27185;52.040;4.490;2023-01-09T05:09:18;7.47;;;1.30;;
41446;SDS011;27185;52.040;4.490;2023-01-09T05:12:04;10.35;;;2.00;;
41446;SDS011;27185;52.040;4.490;2023-01-09T05:14:50;6.85;;;1.80;;
41446;SDS011;27185;52.040;4.490;2023-01-09T05:17:35;9.18;;;1.80;;
41446;SDS011;27185;52.040;4.490;2023-01-09T05:20:21;8.27;;;1.23;;
41446;SDS011;27185;52.040;4.490;2023-01-09T05:23:06;6.25;;;1.40;;
41446;SDS011;27185;52.040;4.490;2023-01-09T05:25:52;7.35;;;1.98;;
41446;SDS011;27185;52.040;4.490;2023-01-09T05:28:38;9.07;;;1.80;;
41446;SDS011;27185;52.040;4.490;2023-01-09T05:31:24;4.93;;;1.23;;
41446;SDS011;27185;52.040;4.490;2023-01-09T05:34:10;11.20;;;2.53;;
41446;SDS011;27185;52.040;4.490;2023-01-09T05:36:56;7.25;;;2.00;;
41446;SDS011;27185;52.040;4.490;2023-01-09T05:39:42;7.28;;;2.17;;
41446;SDS011;27185;52.040;4.490;2023-01-09T05:42:27;3.70;;;1.85;;
41446;SDS011;27185;52.040;4.490;2023-01-09T05:45:13;11.93;;;2.00;;
41446;SDS011;27185;52.040;4.490;2023-01-09T05:47:58;13.30;;;2.65;;
41446;SDS011;27185;52.040;4.490;2023-01-09T05:50:44;10.10;;;2.35;;
41446;SDS011;27185;52.040;4.490;2023-01-09T05:53:29;12.20;;;2.88;;
41446;SDS011;27185;52.040;4.490;2023-01-09T05:56:15;8.55;;;2.30;;
41446;SDS011;27185;52.040;4.490;2023-01-09T05:59:01;10.68;;;2.35;;
41446;SDS011;27185;52.040;4.490;2023-01-09T06:01:46;9.85;;;2.75;;
41446;SDS011;27185;52.040;4.490;2023-01-09T06:04:32;9.88;;;2.80;;
41446;SDS011;27185;52.040;4.490;2023-01-09T06:07:17;8.82;;;2.13;;
41446;SDS011;27185;52.040;4.490;2023-01-09T06:10:03;11.02;;;3.40;;
41446;SDS011;27185;52.040;4.490;2023-01-09T06:12:49;10.82;;;2.10;;
41446;SDS011;27185;52.040;4.490;2023-01-09T06:15:35;12.32;;;2.42;;
41446;SDS011;27185;52.040;4.490;2023-01-09T06:18:21;9.70;;;2.47;;
41446;SDS011;27185;52.040;4.490;2023-01-09T06:21:08;8.55;;;2.05;;
41446;SDS011;27185;52.040;4.490;2023-01-09T06:23:54;15.13;;;2.60;;
41446;SDS011;27185;52.040;4.490;2023-01-09T06:26:40;6.55;;;2.22;;
41446;SDS011;27185;52.040;4.490;2023-01-09T06:29:26;12.77;;;2.90;;
41446;SDS011;27185;52.040;4.490;2023-01-09T06:32:11;10.48;;;2.15;;
41446;SDS011;27185;52.040;4.490;2023-01-09T06:34:57;10.00;;;2.40;;
41446;SDS011;27185;52.040;4.490;2023-01-09T06:37:42;14.70;;;2.53;;
41446;SDS011;27185;52.040;4.490;2023-01-09T06:40:28;7.30;;;2.63;;
41446;SDS011;27185;52.040;4.490;2023-01-09T06:43:14;8.05;;;2.03;;
41446;SDS011;27185;52.040;4.490;2023-01-09T06:46:00;9.52;;;2.25;;
41446;SDS011;27185;52.040;4.490;2023-01-09T06:48:45;10.18;;;2.72;;
41446;SDS011;27185;52.040;4.490;2023-01-09T06:51:31;9.75;;;2.83;;
41446;SDS011;27185;52.040;4.490;2023-01-09T06:54:17;10.27;;;2.80;;
41446;SDS011;27185;52.040;4.490;2023-01-09T06:57:03;9.20;;;2.15;;
41446;SDS011;27185;52.040;4.490;2023-01-09T06:59:48;10.20;;;1.55;;
41446;SDS011;27185;52.040;4.490;2023-01-09T07:02:34;12.80;;;2.03;;
41446;SDS011;27185;52.040;4.490;2023-01-09T07:05:19;6.30;;;1.42;;
41446;SDS011;27185;52.040;4.490;2023-01-09T07:08:05;4.55;;;0.88;;
41446;SDS011;27185;52.040;4.490;2023-01-09T07:10:51;8.73;;;0.90;;
41446;SDS011;27185;52.040;4.490;2023-01-09T07:13:36;10.75;;;1.25;;
41446;SDS011;27185;52.040;4.490;2023-01-09T07:16:22;6.03;;;1.00;;
41446;SDS011;27185;52.040;4.490;2023-01-09T07:19:07;7.90;;;0.88;;
41446;SDS011;27185;52.040;4.490;2023-01-09T07:21:53;6.75;;;1.35;;
41446;SDS011;27185;52.040;4.490;2023-01-09T07:24:39;7.13;;;0.70;;
41446;SDS011;27185;52.040;4.490;2023-01-09T07:27:24;7.45;;;0.65;;
41446;SDS011;27185;52.040;4.490;2023-01-09T07:30:13;6.60;;;0.52;;
41446;SDS011;27185;52.040;4.490;2023-01-09T07:32:59;5.30;;;0.43;;
41446;SDS011;27185;52.040;4.490;2023-01-09T07:35:44;3.78;;;0.40;;
41446;SDS011;27185;52.040;4.490;2023-01-09T07:38:30;6.45;;;0.60;;
41446;SDS011;27185;52.040;4.490;2023-01-09T07:41:16;6.53;;;0.55;;
41446;SDS011;27185;52.040;4.490;2023-01-09T07:44:02;3.85;;;0.38;;
41446;SDS011;27185;52.040;4.490;2023-01-09T07:46:48;5.25;;;0.50;;
41446;SDS011;27185;52.040;4.490;2023-01-09T07:49:33;5.82;;;0.32;;
41446;SDS011;27185;52.040;4.490;2023-01-09T07:52:19;4.40;;;0.40;;
41446;SDS011;27185;52.040;4.490;2023-01-09T07:55:05;7.80;;;0.55;;
41446;SDS011;27185;52.040;4.490;2023-01-09T07:57:51;6.45;;;0.38;;
41446;SDS011;27185;52.040;4.490;2023-01-09T08:00:37;5.47;;;0.50;;
41446;SDS011;27185;52.040;4.490;2023-01-09T08:03:22;7.63;;;0.77;;
41446;SDS011;27185;52.040;4.490;2023-01-09T08:06:08;6.57;;;0.65;;
41446;SDS011;27185;52.040;4.490;2023-01-09T08:08:54;4.05;;;0.52;;
41446;SDS011;27185;52.040;4.490;2023-01-09T08:11:40;8.63;;;0.60;;
41446;SDS011;27185;52.040;4.490;2023-01-09T08:14:26;7.13;;;0.80;;
41446;SDS011;27185;52.040;4.490;2023-01-09T08:17:11;11.45;;;1.00;;
41446;SDS011;27185;52.040;4.490;2023-01-09T08:19:57;6.30;;;0.88;;
41446;SDS011;27185;52.040;4.490;2023-01-09T08:22:44;12.75;;;1.10;;
41446;SDS011;27185;52.040;4.490;2023-01-09T08:25:34;13.65;;;1.08;;
41446;SDS011;27185;52.040;4.490;2023-01-09T08:28:23;17.42;;;1.33;;
41446;SDS011;27185;52.040;4.490;2023-01-09T08:31:11;16.05;;;1.77;;
41446;SDS011;27185;52.040;4.490;2023-01-09T08:33:57;18.27;;;1.95;;
41446;SDS011;27185;52.040;4.490;2023-01-09T08:36:43;12.68;;;1.42;;
41446;SDS011;27185;52.040;4.490;2023-01-09T08:39:32;15.90;;;1.70;;
41446;SDS011;27185;52.040;4.490;2023-01-09T08:42:18;14.05;;;1.50;;
41446;SDS011;27185;52.040;4.490;2023-01-09T08:45:22;11.52;;;1.60;;
41446;SDS011;27185;52.040;4.490;2023-01-09T08:48:26;19.00;;;2.38;;
41446;SDS011;27185;52.040;4.490;2023-01-09T08:51:12;11.18;;;1.23;;
41446;SDS011;27185;52.040;4.490;2023-01-09T08:53:58;19.08;;;1.80;;
41446;SDS011;27185;52.040;4.490;2023-01-09T08:56:43;12.85;;;1.98;;
41446;SDS011;27185;52.040;4.490;2023-01-09T08:59:29;21.25;;;2.65;;
41446;SDS011;27185;52.040;4.490;2023-01-09T09:02:14;9.43;;;1.38;;
41446;SDS011;27185;52.040;4.490;2023-01-09T09:05:00;12.43;;;1.42;;
41446;SDS011;27185;52.040;4.490;2023-01-09T09:07:49;18.75;;;2.88;;
41446;SDS011;27185;52.040;4.490;2023-01-09T09:10:38;17.30;;;2.03;;
41446;SDS011;27185;52.040;4.490;2023-01-09T09:13:24;22.10;;;2.25;;
41446;SDS011;27185;52.040;4.490;2023-01-09T09:16:09;14.95;;;2.00;;
41446;SDS011;27185;52.040;4.490;2023-01-09T09:18:55;13.10;;;1.63;;
41446;SDS011;27185;52.040;4.490;2023-01-09T09:21:40;11.85;;;1.70;;
41446;SDS011;27185;52.040;4.490;2023-01-09T09:24:26;10.00;;;0.90;;
41446;SDS011;27185;52.040;4.490;2023-01-09T09:27:11;11.10;;;1.10;;
41446;SDS011;27185;52.040;4.490;2023-01-09T09:29:57;14.95;;;2.67;;
41446;SDS011;27185;52.040;4.490;2023-01-09T09:32:43;10.95;;;1.85;;
41446;SDS011;27185;52.040;4.490;2023-01-09T09:35:29;9.73;;;1.10;;
41446;SDS011;27185;52.040;4.490;2023-01-09T09:38:16;12.65;;;1.95;;
41446;SDS011;27185;52.040;4.490;2023-01-09T09:41:06;13.77;;;1.52;;
41446;SDS011;27185;52.040;4.490;2023-01-09T09:44:51;10.80;;;1.40;;
41446;SDS011;27185;52.040;4.490;2023-01-09T09:53:39;6.22;;;0.93;;
41446;SDS011;27185;52.040;4.490;2023-01-09T09:56:33;6.88;;;1.05;;
41446;SDS011;27185;52.040;4.490;2023-01-09T09:59:26;6.75;;;1.00;;
41446;SDS011;27185;52.040;4.490;2023-01-09T10:02:23;15.32;;;1.50;;
41446;SDS011;27185;52.040;4.490;2023-01-09T10:05:19;12.90;;;2.65;;
41446;SDS011;27185;52.040;4.490;2023-01-09T10:08:28;7.13;;;1.30;;
41446;SDS011;27185;52.040;4.490;2023-01-09T10:11:53;13.43;;;1.45;;
41446;SDS011;27185;52.040;4.490;2023-01-09T10:14:59;14.95;;;1.27;;
41446;SDS011;27185;52.040;4.490;2023-01-09T10:21:06;11.35;;;1.85;;
41446;SDS011;27185;52.040;4.490;2023-01-09T10:27:01;17.75;;;2.35;;
41446;SDS011;27185;52.040;4.490;2023-01-09T10:29:59;11.45;;;1.65;;
41446;SDS011;27185;52.040;4.490;2023-01-09T10:36:09;19.00;;;2.25;;
41446;SDS011;27185;52.040;4.490;2023-01-09T10:39:07;10.18;;;1.77;;
41446;SDS011;27185;52.040;4.490;2023-01-09T10:45:49;19.55;;;2.50;;
41446;SDS011;27185;52.040;4.490;2023-01-09T10:48:19;12.85;;;1.40;;
41446;SDS011;27185;52.040;4.490;2023-01-09T10:51:20;13.80;;;1.67;;
41446;SDS011;27185;52.040;4.490;2023-01-09T10:54:12;12.45;;;1.70;;
41446;SDS011;27185;52.040;4.490;2023-01-09T10:57:12;15.32;;;1.85;;
41446;SDS011;27185;52.040;4.490;2023-01-09T11:00:00;9.57;;;1.42;;
41446;SDS011;27185;52.040;4.490;2023-01-09T11:02:46;15.48;;;1.60;;
41446;SDS011;27185;52.040;4.490;2023-01-09T11:05:32;15.85;;;1.45;;
41446;SDS011;27185;52.040;4.490;2023-01-09T11:08:22;11.23;;;1.80;;
41446;SDS011;27185;52.040;4.490;2023-01-09T11:14:18;16.08;;;2.15;;
41446;SDS011;27185;52.040;4.490;2023-01-09T11:17:21;10.60;;;1.50;;
41446;SDS011;27185;52.040;4.490;2023-01-09T11:20:14;10.23;;;1.70;;
41446;SDS011;27185;52.040;4.490;2023-01-09T11:23:13;16.45;;;2.28;;
41446;SDS011;27185;52.040;4.490;2023-01-09T11:26:20;15.32;;;1.67;;
41446;SDS011;27185;52.040;4.490;2023-01-09T11:29:12;16.05;;;1.10;;
41446;SDS011;27185;52.040;4.490;2023-01-09T11:32:03;12.82;;;1.80;;
41446;SDS011;27185;52.040;4.490;2023-01-09T11:34:48;16.10;;;1.73;;
41446;SDS011;27185;52.040;4.490;2023-01-09T11:37:34;14.32;;;1.42;;
41446;SDS011;27185;52.040;4.490;2023-01-09T11:40:20;7.85;;;1.42;;
41446;SDS011;27185;52.040;4.490;2023-01-09T11:46:04;15.48;;;1.83;;
41446;SDS011;27185;52.040;4.490;2023-01-09T11:48:55;11.65;;;1.73;;
41446;SDS011;27185;52.040;4.490;2023-01-09T11:51:42;17.48;;;2.38;;
41446;SDS011;27185;52.040;4.490;2023-01-09T11:54:33;10.65;;;1.52;;
41446;SDS011;27185;52.040;4.490;2023-01-09T11:57:22;11.57;;;1.75;;
41446;SDS011;27185;52.040;4.490;2023-01-09T12:00:19;19.25;;;2.40;;
41446;SDS011;27185;52.040;4.490;2023-01-09T12:09:24;9.90;;;1.40;;
41446;SDS011;27185;52.040;4.490;2023-01-09T12:18:09;11.18;;;1.30;;
41446;SDS011;27185;52.040;4.490;2023-01-09T12:24:16;12.98;;;1.52;;
41446;SDS011;27185;52.040;4.490;2023-01-09T12:27:25;12.43;;;1.95;;
41446;SDS011;27185;52.040;4.490;2023-01-09T12:33:29;13.82;;;2.10;;
41446;SDS011;27185;52.040;4.490;2023-01-09T12:48:28;14.50;;;1.55;;
41446;SDS011;27185;52.040;4.490;2023-01-09T12:54:36;13.80;;;1.83;;
41446;SDS011;27185;52.040;4.490;2023-01-09T12:57:49;12.63;;;1.67;;
41446;SDS011;27185;52.040;4.490;2023-01-09T13:00:39;9.68;;;1.25;;
41446;SDS011;27185;52.040;4.490;2023-01-09T13:03:38;12.07;;;1.83;;
41446;SDS011;27185;52.040;4.490;2023-01-09T13:06:31;12.93;;;2.38;;
41446;SDS011;27185;52.040;4.490;2023-01-09T13:12:37;12.60;;;1.55;;
41446;SDS011;27185;52.040;4.490;2023-01-09T13:21:14;12.85;;;1.27;;
41446;SDS011;27185;52.040;4.490;2023-01-09T13:27:22;16.92;;;3.30;;
41446;SDS011;27185;52.040;4.490;2023-01-09T13:35:57;11.82;;;1.38;;
41446;SDS011;27185;52.040;4.490;2023-01-09T13:38:46;15.20;;;1.50;;
41446;SDS011;27185;52.040;4.490;2023-01-09T13:41:34;14.02;;;1.58;;
41446;SDS011;27185;52.040;4.490;2023-01-09T13:44:54;14.55;;;2.35;;
41446;SDS011;27185;52.040;4.490;2023-01-09T13:50:58;9.43;;;1.52;;
41446;SDS011;27185;52.040;4.490;2023-01-09T13:54:55;11.88;;;1.38;;
41446;SDS011;27185;52.040;4.490;2023-01-09T13:57:30;18.08;;;1.70;;
41446;SDS011;27185;52.040;4.490;2023-01-09T14:06:15;17.15;;;1.77;;
41446;SDS011;27185;52.040;4.490;2023-01-09T14:09:18;12.95;;;1.52;;
41446;SDS011;27185;52.040;4.490;2023-01-09T14:12:05;15.98;;;1.52;;
41446;SDS011;27185;52.040;4.490;2023-01-09T14:14:52;8.05;;;1.30;;
41446;SDS011;27185;52.040;4.490;2023-01-09T14:17:40;19.63;;;2.00;;
41446;SDS011;27185;52.040;4.490;2023-01-09T14:20:26;27.05;;;1.80;;
41446;SDS011;27185;52.040;4.490;2023-01-09T14:23:21;11.73;;;1.45;;
41446;SDS011;27185;52.040;4.490;2023-01-09T14:26:14;12.30;;;1.30;;
41446;SDS011;27185;52.040;4.490;2023-01-09T14:35:14;12.88;;;1.35;;
41446;SDS011;27185;52.040;4.490;2023-01-09T14:38:05;10.38;;;1.60;;
41446;SDS011;27185;52.040;4.490;2023-01-09T14:41:05;9.40;;;1.13;;
41446;SDS011;27185;52.040;4.490;2023-01-09T14:44:05;6.45;;;1.10;;
41446;SDS011;27185;52.040;4.490;2023-01-09T14:47:59;9.93;;;1.13;;
41446;SDS011;27185;52.040;4.490;2023-01-09T14:50:41;7.28;;;1.13;;
41446;SDS011;27185;52.040;4.490;2023-01-09T14:53:39;11.60;;;1.90;;
41446;SDS011;27185;52.040;4.490;2023-01-09T14:56:28;10.65;;;1.50;;
41446;SDS011;27185;52.040;4.490;2023-01-09T14:59:15;7.47;;;0.90;;
41446;SDS011;27185;52.040;4.490;2023-01-09T15:02:00;6.88;;;1.05;;
41446;SDS011;27185;52.040;4.490;2023-01-09T15:04:46;12.00;;;1.60;;
41446;SDS011;27185;52.040;4.490;2023-01-09T15:07:34;9.15;;;0.98;;
41446;SDS011;27185;52.040;4.490;2023-01-09T15:10:29;9.02;;;1.45;;
41446;SDS011;27185;52.040;4.490;2023-01-09T15:13:28;14.80;;;1.20;;
41446;SDS011;27185;52.040;4.490;2023-01-09T15:16:21;7.60;;;1.00;;
41446;SDS011;27185;52.040;4.490;2023-01-09T15:19:08;11.23;;;1.67;;
41446;SDS011;27185;52.040;4.490;2023-01-09T15:21:57;8.75;;;1.10;;
41446;SDS011;27185;52.040;4.490;2023-01-09T15:24:45;13.95;;;1.77;;
41446;SDS011;27185;52.040;4.490;2023-01-09T15:27:31;17.83;;;1.33;;
41446;SDS011;27185;52.040;4.490;2023-01-09T15:30:20;11.30;;;1.48;;
41446;SDS011;27185;52.040;4.490;2023-01-09T15:33:12;8.77;;;0.82;;
41446;SDS011;27185;52.040;4.490;2023-01-09T15:36:02;10.70;;;1.20;;
41446;SDS011;27185;52.040;4.490;2023-01-09T15:38:56;7.43;;;0.90;;
41446;SDS011;27185;52.040;4.490;2023-01-09T15:41:43;9.93;;;1.55;;
41446;SDS011;27185;52.040;4.490;2023-01-09T15:44:48;5.93;;;1.00;;
41446;SDS011;27185;52.040;4.490;2023-01-09T15:47:37;13.13;;;1.20;;
41446;SDS011;27185;52.040;4.490;2023-01-09T15:50:25;13.25;;;1.33;;
41446;SDS011;27185;52.040;4.490;2023-01-09T15:53:12;5.72;;;1.48;;
41446;SDS011;27185;52.040;4.490;2023-01-09T15:56:04;7.80;;;1.10;;
41446;SDS011;27185;52.040;4.490;2023-01-09T15:58:56;4.50;;;0.70;;
41446;SDS011;27185;52.040;4.490;2023-01-09T16:01:43;5.13;;;0.68;;
41446;SDS011;27185;52.040;4.490;2023-01-09T16:04:49;6.40;;;1.63;;
41446;SDS011;27185;52.040;4.490;2023-01-09T16:07:36;8.88;;;1.35;;
41446;SDS011;27185;52.040;4.490;2023-01-09T16:10:32;3.58;;;0.73;;
41446;SDS011;27185;52.040;4.490;2023-01-09T16:13:20;6.45;;;1.20;;
41446;SDS011;27185;52.040;4.490;2023-01-09T16:16:07;5.53;;;1.00;;
41446;SDS011;27185;52.040;4.490;2023-01-09T16:18:54;6.05;;;1.00;;
41446;SDS011;27185;52.040;4.490;2023-01-09T16:21:40;7.40;;;0.88;;
41446;SDS011;27185;52.040;4.490;2023-01-09T16:24:27;11.70;;;1.17;;
41446;SDS011;27185;52.040;4.490;2023-01-09T16:30:26;7.13;;;1.45;;
41446;SDS011;27185;52.040;4.490;2023-01-09T16:33:18;7.13;;;1.10;;
41446;SDS011;27185;52.040;4.490;2023-01-09T16:36:05;7.93;;;1.40;;
41446;SDS011;27185;52.040;4.490;2023-01-09T16:38:51;7.88;;;2.03;;
41446;SDS011;27185;52.040;4.490;2023-01-09T16:41:38;9.25;;;1.58;;
41446;SDS011;27185;52.040;4.490;2023-01-09T16:44:45;8.77;;;1.75;;
41446;SDS011;27185;52.040;4.490;2023-01-09T16:47:31;8.68;;;1.20;;
41446;SDS011;27185;52.040;4.490;2023-01-09T16:50:17;9.07;;;1.45;;
41446;SDS011;27185;52.040;4.490;2023-01-09T16:53:09;5.60;;;1.67;;
41446;SDS011;27185;52.040;4.490;2023-01-09T16:55:59;8.00;;;1.85;;
41446;SDS011;27185;52.040;4.490;2023-01-09T16:58:44;8.57;;;1.60;;
41446;SDS011;27185;52.040;4.490;2023-01-09T17:01:30;15.48;;;2.42;;
41446;SDS011;27185;52.040;4.490;2023-01-09T17:04:16;12.93;;;3.67;;
41446;SDS011;27185;52.040;4.490;2023-01-09T17:07:04;9.27;;;2.03;;
41446;SDS011;27185;52.040;4.490;2023-01-09T17:09:49;9.85;;;2.47;;
41446;SDS011;27185;52.040;4.490;2023-01-09T17:12:35;12.82;;;2.75;;
41446;SDS011;27185;52.040;4.490;2023-01-09T17:15:22;19.00;;;2.70;;
41446;SDS011;27185;52.040;4.490;2023-01-09T17:18:14;12.40;;;1.70;;
41446;SDS011;27185;52.040;4.490;2023-01-09T17:21:01;15.13;;;1.98;;
41446;SDS011;27185;52.040;4.490;2023-01-09T17:23:47;13.57;;;1.65;;
41446;SDS011;27185;52.040;4.490;2023-01-09T17:26:53;3.22;;;0.70;;
41446;SDS011;27185;52.040;4.490;2023-01-09T17:29:57;7.13;;;1.10;;
41446;SDS011;27185;52.040;4.490;2023-01-09T17:32:43;6.50;;;1.20;;
41446;SDS011;27185;52.040;4.490;2023-01-09T17:35:28;6.78;;;1.90;;
41446;SDS011;27185;52.040;4.490;2023-01-09T17:38:14;10.38;;;1.50;;
41446;SDS011;27185;52.040;4.490;2023-01-09T17:41:00;13.55;;;1.88;;
41446;SDS011;27185;52.040;4.490;2023-01-09T17:43:46;5.90;;;1.05;;
41446;SDS011;27185;52.040;4.490;2023-01-09T17:46:32;10.93;;;2.33;;
41446;SDS011;27185;52.040;4.490;2023-01-09T17:49:20;9.02;;;2.40;;
41446;SDS011;27185;52.040;4.490;2023-01-09T17:52:06;17.17;;;2.60;;
41446;SDS011;27185;52.040;4.490;2023-01-09T17:54:52;11.30;;;1.98;;
41446;SDS011;27185;52.040;4.490;2023-01-09T17:57:37;14.25;;;2.45;;
41446;SDS011;27185;52.040;4.490;2023-01-09T18:00:27;14.27;;;2.35;;
41446;SDS011;27185;52.040;4.490;2023-01-09T18:03:15;15.65;;;2.50;;
41446;SDS011;27185;52.040;4.490;2023-01-09T18:06:00;11.10;;;2.65;;
41446;SDS011;27185;52.040;4.490;2023-01-09T18:08:46;13.48;;;3.15;;
41446;SDS011;27185;52.040;4.490;2023-01-09T18:11:32;13.27;;;2.08;;
41446;SDS011;27185;52.040;4.490;2023-01-09T18:14:18;17.92;;;2.50;;
41446;SDS011;27185;52.040;4.490;2023-01-09T18:17:04;15.23;;;2.25;;
41446;SDS011;27185;52.040;4.490;2023-01-09T18:19:50;14.90;;;2.55;;
41446;SDS011;27185;52.040;4.490;2023-01-09T18:22:35;18.10;;;3.13;;
41446;SDS011;27185;52.040;4.490;2023-01-09T18:25:21;12.43;;;2.08;;
41446;SDS011;27185;52.040;4.490;2023-01-09T18:28:07;12.25;;;2.50;;
41446;SDS011;27185;52.040;4.490;2023-01-09T18:30:54;11.63;;;2.20;;
41446;SDS011;27185;52.040;4.490;2023-01-09T18:33:40;10.68;;;2.92;;
41446;SDS011;27185;52.040;4.490;2023-01-09T18:36:26;12.75;;;2.15;;
41446;SDS011;27185;52.040;4.490;2023-01-09T18:39:13;9.77;;;2.50;;
41446;SDS011;27185;52.040;4.490;2023-01-09T18:41:59;11.30;;;2.55;;
41446;SDS011;27185;52.040;4.490;2023-01-09T18:44:45;19.90;;;3.17;;